createdAt,value
2023-04-25T00:00:17.022Z,41.65
2023-04-25T00:01:17.007Z,41.24
2023-04-25T00:02:17.049Z,40.31
2023-04-25T00:03:17.084Z,38.98
2023-04-25T00:04:17.321Z,39.18
2023-04-25T00:05:17.044Z,39.70
2023-04-25T00:06:16.941Z,40.11
2023-04-25T00:07:16.919Z,39.80
2023-04-25T00:08:16.890Z,40.52
2023-04-25T00:09:16.886Z,41.24
2023-04-25T00:10:16.890Z,39.70
2023-04-25T00:11:16.854Z,39.90
2023-04-25T00:12:16.842Z,40.73
2023-04-25T00:13:16.833Z,41.14
2023-04-25T00:14:16.817Z,41.03
2023-04-25T00:15:15.429Z,41.45
2023-04-25T00:16:16.838Z,42.07
2023-04-25T00:17:16.777Z,42.07
2023-04-25T00:18:16.766Z,41.45
2023-04-25T00:19:16.758Z,40.62
2023-04-25T00:20:16.762Z,40.52
2023-04-25T00:21:16.725Z,39.80
2023-04-25T00:22:16.716Z,38.15
2023-04-25T00:23:15.383Z,37.95
2023-04-25T00:24:16.694Z,38.26
2023-04-25T00:25:16.694Z,38.06
2023-04-25T00:26:16.653Z,38.67
2023-04-25T00:27:16.641Z,39.50
2023-04-25T00:28:16.637Z,39.90
2023-04-25T00:29:16.631Z,40.11
2023-04-25T00:30:16.679Z,40.42
2023-04-25T00:31:15.696Z,40.11
2023-04-25T00:32:16.570Z,40.01
2023-04-25T00:33:16.558Z,39.80
2023-04-25T00:34:16.548Z,39.80
2023-04-25T00:35:16.555Z,39.29
2023-04-25T00:36:16.534Z,39.39
2023-04-25T00:37:16.506Z,39.59
2023-04-25T00:38:16.496Z,40.73
2023-04-25T00:39:16.478Z,40.42
2023-04-25T00:40:16.491Z,40.01
2023-04-25T00:41:16.466Z,39.92
2023-04-25T00:42:16.448Z,39.51
2023-04-25T00:43:16.425Z,38.38
2023-04-25T00:44:16.415Z,39.00
2023-04-25T00:45:16.421Z,38.38
2023-04-25T00:46:16.500Z,39.00
2023-04-25T00:47:16.360Z,37.97
2023-04-25T00:48:16.364Z,37.97
2023-04-25T00:49:16.337Z,38.71
2023-04-25T00:50:16.354Z,37.57
2023-04-25T00:51:16.328Z,37.26
2023-04-25T00:52:16.313Z,38.50
2023-04-25T00:53:16.289Z,37.57
2023-04-25T00:54:16.290Z,37.57
2023-04-25T00:55:16.271Z,39.01
2023-04-25T00:56:16.259Z,38.09
2023-04-25T00:57:16.230Z,38.40
2023-04-25T00:58:16.230Z,38.71
2023-04-25T00:59:16.222Z,39.63
2023-04-25T01:00:16.203Z,38.81
2023-04-25T01:01:16.246Z,39.12
2023-04-25T01:02:16.228Z,38.60
2023-04-25T01:03:16.313Z,39.96
2023-04-25T01:04:16.355Z,38.93
2023-04-25T01:05:16.124Z,40.27
2023-04-25T01:06:16.125Z,41.20
2023-04-25T01:07:16.094Z,41.20
2023-04-25T01:08:16.086Z,41.50
2023-04-25T01:09:16.066Z,40.39
2023-04-25T01:10:16.056Z,39.36
2023-04-25T01:11:16.043Z,39.67
2023-04-25T01:12:16.036Z,40.91
2023-04-25T01:13:16.007Z,41.22
2023-04-25T01:14:16.031Z,39.15
2023-04-25T01:15:16.001Z,38.43
2023-04-25T01:16:16.019Z,38.02
2023-04-25T01:17:15.966Z,37.61
2023-04-25T01:18:15.946Z,38.43
2023-04-25T01:19:14.963Z,39.26
2023-04-25T01:20:14.962Z,40.08
2023-04-25T01:21:14.967Z,39.98
2023-04-25T01:22:15.903Z,37.92
2023-04-25T01:23:15.877Z,36.47
2023-04-25T01:24:15.871Z,36.79
2023-04-25T01:25:15.856Z,37.09
2023-04-25T01:26:15.852Z,36.16
2023-04-25T01:27:14.596Z,36.89
2023-04-25T01:28:15.814Z,38.43
2023-04-25T01:29:15.795Z,37.71
2023-04-25T01:30:15.790Z,38.02
2023-04-25T01:31:15.788Z,39.26
2023-04-25T01:32:15.805Z,38.12
2023-04-25T01:33:15.748Z,38.43
2023-04-25T01:34:15.737Z,39.98
2023-04-25T01:35:15.030Z,39.07
2023-04-25T01:36:15.721Z,39.59
2023-04-25T01:37:15.690Z,40.00
2023-04-25T01:38:15.688Z,40.52
2023-04-25T01:39:15.685Z,41.54
2023-04-25T01:40:15.652Z,42.16
2023-04-25T01:41:15.675Z,42.47
2023-04-25T01:42:15.627Z,43.19
2023-04-25T01:43:14.917Z,41.54
2023-04-25T01:44:15.612Z,40.61
2023-04-25T01:45:15.596Z,40.41
2023-04-25T01:46:15.643Z,37.93
2023-04-25T01:47:15.570Z,37.32
2023-04-25T01:48:15.558Z,36.18
2023-04-25T01:49:15.528Z,34.94
2023-04-25T01:50:15.541Z,35.87
2023-04-25T01:51:15.514Z,35.97
2023-04-25T01:52:15.495Z,36.08
2023-04-25T01:53:15.500Z,37.11
2023-04-25T01:54:15.482Z,37.63
2023-04-25T01:55:15.455Z,37.13
2023-04-25T01:56:15.449Z,35.48
2023-04-25T01:57:15.427Z,36.49
2023-04-25T01:58:15.424Z,34.65
2023-04-25T01:59:15.403Z,34.55
2023-04-25T02:00:15.383Z,35.17
2023-04-25T02:01:15.428Z,34.14
2023-04-25T02:02:15.457Z,34.84
2023-04-25T02:03:15.479Z,35.67
2023-04-25T02:04:15.456Z,36.49
2023-04-25T02:05:15.323Z,37.32
2023-04-25T02:06:15.321Z,37.63
2023-04-25T02:07:15.286Z,37.52
2023-04-25T02:08:15.283Z,37.32
2023-04-25T02:09:15.262Z,36.70
2023-04-25T02:10:15.251Z,36.80
2023-04-25T02:11:15.251Z,36.80
2023-04-25T02:12:15.229Z,37.32
2023-04-25T02:13:15.213Z,37.42
2023-04-25T02:14:15.203Z,37.42
2023-04-25T02:15:15.193Z,37.34
2023-04-25T02:16:15.278Z,35.68
2023-04-25T02:17:15.204Z,35.48
2023-04-25T02:18:15.208Z,35.06
2023-04-25T02:19:15.152Z,34.34
2023-04-25T02:20:15.117Z,34.24
2023-04-25T02:21:15.115Z,35.06
2023-04-25T02:22:15.110Z,35.99
2023-04-25T02:23:13.635Z,37.54
2023-04-25T02:24:15.085Z,38.57
2023-04-25T02:25:15.063Z,40.12
2023-04-25T02:26:15.055Z,40.94
2023-04-25T02:27:15.050Z,41.17
2023-04-25T02:28:15.012Z,40.45
2023-04-25T02:29:15.019Z,39.42
2023-04-25T02:30:14.997Z,39.31
2023-04-25T02:31:13.599Z,39.52
2023-04-25T02:32:14.962Z,40.24
2023-04-25T02:33:14.952Z,40.86
2023-04-25T02:34:14.931Z,41.89
2023-04-25T02:35:14.938Z,42.30
2023-04-25T02:36:14.923Z,42.41
2023-04-25T02:37:14.911Z,41.69
2023-04-25T02:38:14.903Z,40.75
2023-04-25T02:39:13.874Z,41.58
2023-04-25T02:40:14.885Z,41.17
2023-04-25T02:41:14.855Z,41.69
2023-04-25T02:42:14.837Z,41.48
2023-04-25T02:43:14.852Z,41.58
2023-04-25T02:44:14.818Z,41.58
2023-04-25T02:45:13.520Z,41.69
2023-04-25T02:46:15.587Z,42.63
2023-04-25T02:47:13.555Z,41.69
2023-04-25T02:48:14.807Z,41.48
2023-04-25T02:49:14.734Z,41.27
2023-04-25T02:50:14.748Z,41.06
2023-04-25T02:51:14.725Z,40.96
2023-04-25T02:52:14.707Z,40.96
2023-04-25T02:53:14.684Z,41.69
2023-04-25T02:54:14.683Z,39.31
2023-04-25T02:55:13.712Z,37.87
2023-04-25T02:56:14.661Z,36.83
2023-04-25T02:57:14.634Z,35.49
2023-04-25T02:58:14.635Z,35.19
2023-04-25T02:59:14.614Z,35.08
2023-04-25T03:00:14.595Z,34.67
2023-04-25T03:01:14.632Z,34.05
2023-04-25T03:02:14.617Z,34.45
2023-04-25T03:03:13.155Z,34.86
2023-04-25T03:04:14.568Z,34.96
2023-04-25T03:05:14.520Z,35.68
2023-04-25T03:06:14.517Z,36.20
2023-04-25T03:07:14.485Z,36.20
2023-04-25T03:08:14.514Z,36.71
2023-04-25T03:09:14.486Z,37.23
2023-04-25T03:10:14.458Z,37.64
2023-04-25T03:11:14.466Z,37.74
2023-04-25T03:12:14.458Z,38.26
2023-04-25T03:13:14.433Z,38.49
2023-04-25T03:14:14.402Z,39.42
2023-04-25T03:15:14.397Z,36.94
2023-04-25T03:16:14.403Z,36.42
2023-04-25T03:17:14.364Z,36.94
2023-04-25T03:18:14.343Z,37.55
2023-04-25T03:19:13.133Z,37.06
2023-04-25T03:20:14.327Z,36.22
2023-04-25T03:21:14.311Z,36.63
2023-04-25T03:22:14.317Z,36.63
2023-04-25T03:23:14.282Z,37.15
2023-04-25T03:24:14.284Z,37.55
2023-04-25T03:25:14.260Z,38.28
2023-04-25T03:26:14.240Z,38.18
2023-04-25T03:27:14.231Z,37.47
2023-04-25T03:28:14.222Z,37.06
2023-04-25T03:29:14.205Z,36.23
2023-04-25T03:30:12.779Z,36.32
2023-04-25T03:31:14.169Z,36.63
2023-04-25T03:32:14.354Z,36.52
2023-04-25T03:33:14.144Z,37.04
2023-04-25T03:34:14.140Z,36.33
2023-04-25T03:35:12.674Z,34.99
2023-04-25T03:36:14.117Z,34.48
2023-04-25T03:37:14.141Z,34.88
2023-04-25T03:38:14.082Z,35.28
2023-04-25T03:39:14.076Z,35.60
2023-04-25T03:40:14.057Z,36.22
2023-04-25T03:41:13.101Z,36.42
2023-04-25T03:42:13.092Z,37.25
2023-04-25T03:43:13.110Z,37.55
2023-04-25T03:44:14.005Z,37.66
2023-04-25T03:45:13.981Z,38.39
2023-04-25T03:46:14.025Z,38.79
2023-04-25T03:47:13.974Z,37.97
2023-04-25T03:48:13.951Z,37.66
2023-04-25T03:49:13.932Z,37.15
2023-04-25T03:50:13.937Z,36.83
2023-04-25T03:51:12.449Z,37.15
2023-04-25T03:52:13.913Z,36.11
2023-04-25T03:53:13.155Z,35.60
2023-04-25T03:54:13.884Z,35.49
2023-04-25T03:55:13.861Z,35.80
2023-04-25T03:56:13.849Z,34.98
2023-04-25T03:57:13.855Z,34.98
2023-04-25T03:58:13.824Z,35.80
2023-04-25T03:59:12.800Z,35.19
2023-04-25T04:00:13.804Z,35.08
2023-04-25T04:01:13.767Z,34.88
2023-04-25T04:02:12.859Z,33.64
2023-04-25T04:03:13.886Z,34.05
2023-04-25T04:04:14.196Z,34.36
2023-04-25T04:05:14.002Z,33.84
2023-04-25T04:06:13.712Z,34.05
2023-04-25T04:07:12.974Z,34.15
2023-04-25T04:08:13.683Z,34.67
2023-04-25T04:09:13.679Z,35.28
2023-04-25T04:10:13.697Z,35.68
2023-04-25T04:11:13.642Z,35.68
2023-04-25T04:12:13.654Z,36.41
2023-04-25T04:13:13.629Z,35.89
2023-04-25T04:14:13.592Z,35.99
2023-04-25T04:15:13.594Z,36.10
2023-04-25T04:16:13.612Z,36.20
2023-04-25T04:17:13.575Z,36.30
2023-04-25T04:18:13.548Z,36.82
2023-04-25T04:19:13.181Z,36.71
2023-04-25T04:20:13.539Z,37.02
2023-04-25T04:21:13.519Z,37.85
2023-04-25T04:22:13.498Z,36.92
2023-04-25T04:23:12.147Z,37.23
2023-04-25T04:24:13.473Z,37.02
2023-04-25T04:25:13.457Z,37.13
2023-04-25T04:26:13.542Z,36.82
2023-04-25T04:27:13.423Z,37.23
2023-04-25T04:28:13.415Z,36.82
2023-04-25T04:29:13.393Z,37.34
2023-04-25T04:30:13.396Z,36.92
2023-04-25T04:31:13.408Z,36.61
2023-04-25T04:32:13.376Z,36.41
2023-04-25T04:33:13.385Z,36.82
2023-04-25T04:34:13.329Z,37.34
2023-04-25T04:35:13.313Z,38.16
2023-04-25T04:36:13.302Z,37.23
2023-04-25T04:37:13.292Z,36.92
2023-04-25T04:38:13.271Z,37.13
2023-04-25T04:39:13.261Z,37.85
2023-04-25T04:40:13.259Z,37.34
2023-04-25T04:41:13.236Z,37.44
2023-04-25T04:42:13.240Z,37.32
2023-04-25T04:43:13.241Z,37.21
2023-04-25T04:44:13.203Z,36.80
2023-04-25T04:45:13.212Z,36.29
2023-04-25T04:46:13.233Z,35.97
2023-04-25T04:47:13.157Z,34.84
2023-04-25T04:48:13.183Z,34.64
2023-04-25T04:49:13.133Z,34.22
2023-04-25T04:50:13.130Z,33.81
2023-04-25T04:51:13.096Z,34.12
2023-04-25T04:52:13.121Z,33.19
2023-04-25T04:53:11.897Z,32.89
2023-04-25T04:54:11.888Z,32.68
2023-04-25T04:55:11.906Z,33.09
2023-04-25T04:56:13.048Z,32.68
2023-04-25T04:57:11.897Z,32.78
2023-04-25T04:58:13.005Z,32.78
2023-04-25T04:59:11.794Z,34.22
2023-04-25T05:00:12.981Z,32.99
2023-04-25T05:01:13.056Z,33.50
2023-04-25T05:02:11.945Z,33.61
2023-04-25T05:03:13.077Z,33.92
2023-04-25T05:04:13.046Z,33.71
2023-04-25T05:05:12.912Z,32.68
2023-04-25T05:06:12.898Z,31.54
2023-04-25T05:07:12.921Z,31.03
2023-04-25T05:08:12.871Z,32.37
2023-04-25T05:09:12.854Z,31.34
2023-04-25T05:10:11.467Z,31.65
2023-04-25T05:11:11.586Z,30.82
2023-04-25T05:12:12.836Z,31.96
2023-04-25T05:13:12.819Z,31.65
2023-04-25T05:14:12.817Z,30.62
2023-04-25T05:15:12.813Z,30.93
2023-04-25T05:16:12.863Z,30.41
2023-04-25T05:17:12.766Z,29.58
2023-04-25T05:18:12.767Z,31.13
2023-04-25T05:19:12.722Z,30.00
2023-04-25T05:20:12.713Z,30.41
2023-04-25T05:21:12.700Z,30.93
2023-04-25T05:22:12.693Z,30.51
2023-04-25T05:23:12.669Z,30.00
2023-04-25T05:24:12.660Z,29.68
2023-04-25T05:25:12.661Z,30.08
2023-04-25T05:26:12.621Z,30.19
2023-04-25T05:27:12.639Z,30.80
2023-04-25T05:28:12.591Z,31.10
2023-04-25T05:29:12.591Z,31.41
2023-04-25T05:30:12.578Z,31.72
2023-04-25T05:31:12.572Z,32.44
2023-04-25T05:32:12.610Z,34.09
2023-04-25T05:33:12.586Z,34.70
2023-04-25T05:34:12.527Z,35.22
2023-04-25T05:35:12.571Z,34.59
2023-04-25T05:36:12.505Z,34.89
2023-04-25T05:37:12.479Z,35.31
2023-04-25T05:38:12.472Z,35.21
2023-04-25T05:39:12.456Z,36.85
2023-04-25T05:40:12.433Z,36.25
2023-04-25T05:41:12.419Z,36.46
2023-04-25T05:42:10.963Z,36.35
2023-04-25T05:43:12.384Z,35.94
2023-04-25T05:44:11.939Z,35.63
2023-04-25T05:45:12.383Z,35.63
2023-04-25T05:46:12.413Z,35.63
2023-04-25T05:47:12.354Z,35.74
2023-04-25T05:48:12.354Z,35.52
2023-04-25T05:49:12.318Z,35.93
2023-04-25T05:50:12.325Z,34.89
2023-04-25T05:51:12.281Z,34.59
2023-04-25T05:52:12.297Z,35.00
2023-04-25T05:53:12.267Z,35.31
2023-04-25T05:54:12.242Z,35.82
2023-04-25T05:55:11.741Z,36.65
2023-04-25T05:56:12.222Z,36.75
2023-04-25T05:57:12.212Z,36.85
2023-04-25T05:58:12.190Z,36.44
2023-04-25T05:59:12.164Z,36.13
2023-04-25T06:00:12.199Z,36.13
2023-04-25T06:01:12.144Z,36.01
2023-04-25T06:02:12.224Z,36.22
2023-04-25T06:03:12.282Z,36.11
2023-04-25T06:04:12.370Z,36.63
2023-04-25T06:05:11.565Z,35.91
2023-04-25T06:06:10.811Z,36.01
2023-04-25T06:07:10.604Z,35.81
2023-04-25T06:08:11.126Z,36.53
2023-04-25T06:09:14.291Z,36.63
2023-04-25T06:10:12.057Z,36.63
2023-04-25T06:11:11.517Z,36.11
2023-04-25T06:12:12.002Z,36.11
2023-04-25T06:13:12.008Z,36.53
2023-04-25T06:14:11.204Z,35.91
2023-04-25T06:15:24.249Z,36.43
2023-04-25T06:16:12.970Z,35.50
2023-04-25T06:17:11.970Z,36.11
2023-04-25T06:18:11.953Z,35.81
2023-04-25T06:19:11.903Z,35.71
2023-04-25T06:20:11.905Z,35.60
2023-04-25T06:21:11.903Z,36.43
2023-04-25T06:22:11.130Z,35.91
2023-04-25T06:23:10.415Z,35.93
2023-04-25T06:24:11.841Z,36.32
2023-04-25T06:25:11.834Z,36.01
2023-04-25T06:26:11.813Z,36.44
2023-04-25T06:27:11.801Z,37.16
2023-04-25T06:28:11.862Z,36.75
2023-04-25T06:29:11.789Z,36.34
2023-04-25T06:30:10.607Z,35.62
2023-04-25T06:31:11.785Z,35.41
2023-04-25T06:32:11.739Z,34.28
2023-04-25T06:33:11.771Z,34.17
2023-04-25T06:34:11.726Z,34.38
2023-04-25T06:35:11.690Z,35.82
2023-04-25T06:36:11.698Z,35.09
2023-04-25T06:37:11.685Z,35.39
2023-04-25T06:38:11.748Z,34.69
2023-04-25T06:39:11.638Z,33.54
2023-04-25T06:40:11.637Z,34.27
2023-04-25T06:41:11.612Z,34.27
2023-04-25T06:42:11.613Z,35.29
2023-04-25T06:43:11.587Z,34.99
2023-04-25T06:44:11.603Z,35.19
2023-04-25T06:45:11.554Z,35.39
2023-04-25T06:46:10.095Z,34.37
2023-04-25T06:47:11.558Z,33.95
2023-04-25T06:48:11.521Z,34.37
2023-04-25T06:49:11.513Z,34.27
2023-04-25T06:50:11.502Z,34.99
2023-04-25T06:51:11.484Z,35.09
2023-04-25T06:52:11.472Z,34.86
2023-04-25T06:53:11.470Z,34.66
2023-04-25T06:54:11.452Z,35.28
2023-04-25T06:55:11.340Z,35.79
2023-04-25T06:56:11.412Z,36.10
2023-04-25T06:57:11.435Z,36.92
2023-04-25T06:58:11.396Z,36.41
2023-04-25T06:59:11.369Z,36.29
2023-04-25T07:00:11.389Z,36.80
2023-04-25T07:01:11.401Z,37.21
2023-04-25T07:02:11.550Z,37.93
2023-04-25T07:03:11.449Z,38.14
2023-04-25T07:04:11.443Z,37.62
2023-04-25T07:05:11.308Z,38.65
2023-04-25T07:06:11.293Z,37.62
2023-04-25T07:07:11.268Z,36.99
2023-04-25T07:08:11.238Z,36.89
2023-04-25T07:09:11.243Z,37.40
2023-04-25T07:10:11.259Z,37.92
2023-04-25T07:11:11.222Z,39.76
2023-04-25T07:12:11.217Z,39.36
2023-04-25T07:13:11.189Z,38.31
2023-04-25T07:14:10.017Z,40.67
2023-04-25T07:15:10.013Z,42.74
2023-04-25T07:16:10.044Z,41.93
2023-04-25T07:17:11.153Z,40.98
2023-04-25T07:18:09.717Z,40.47
2023-04-25T07:19:10.012Z,41.58
2023-04-25T07:20:11.107Z,41.99
2023-04-25T07:21:10.023Z,42.48
2023-04-25T07:22:11.083Z,44.33
2023-04-25T07:23:11.073Z,44.74
2023-04-25T07:24:11.040Z,45.56
2023-04-25T07:25:11.021Z,47.69
2023-04-25T07:26:09.567Z,50.15
2023-04-25T07:27:11.010Z,51.87
2023-04-25T07:28:10.984Z,53.90
2023-04-25T07:29:10.966Z,60.07
2023-04-25T07:30:10.970Z,57.69
2023-04-25T07:31:10.946Z,61.76
2023-04-25T07:32:10.948Z,62.04
2023-04-25T07:33:10.963Z,65.39
2023-04-25T07:34:09.771Z,77.97
2023-04-25T07:35:10.898Z,81.09
2023-04-25T07:36:10.872Z,87.65
2023-04-25T07:37:10.865Z,88.76
2023-04-25T07:38:09.892Z,81.88
2023-04-25T07:39:10.857Z,77.63
2023-04-25T07:40:10.830Z,76.64
2023-04-25T07:41:10.803Z,74.94
2023-04-25T07:42:10.019Z,77.02
2023-04-25T07:43:10.794Z,70.29
2023-04-25T07:44:09.808Z,66.40
2023-04-25T07:45:10.766Z,65.48
2023-04-25T07:46:10.799Z,64.59
2023-04-25T07:47:10.748Z,62.74
2023-04-25T07:48:10.706Z,64.25
2023-04-25T07:49:10.717Z,64.76
2023-04-25T07:50:10.678Z,63.53
2023-04-25T07:51:10.670Z,63.70
2023-04-25T07:52:10.669Z,61.55
2023-04-25T07:53:10.640Z,63.91
2023-04-25T07:54:10.624Z,62.19
2023-04-25T07:55:10.621Z,65.17
2023-04-25T07:56:10.606Z,65.37
2023-04-25T07:57:10.596Z,66.09
2023-04-25T07:58:09.133Z,63.12
2023-04-25T07:59:10.569Z,62.10
2023-04-25T08:00:10.576Z,69.92
2023-04-25T08:01:10.552Z,63.25
2023-04-25T08:02:10.596Z,63.66
2023-04-25T08:03:11.051Z,61.58
2023-04-25T08:04:10.569Z,61.38
2023-04-25T08:05:10.740Z,61.27
2023-04-25T08:06:09.500Z,61.99
2023-04-25T08:07:10.463Z,63.87
2023-04-25T08:08:10.440Z,63.66
2023-04-25T08:09:10.475Z,63.18
2023-04-25T08:10:10.430Z,59.25
2023-04-25T08:11:10.397Z,58.74
2023-04-25T08:12:10.400Z,60.89
2023-04-25T08:13:10.362Z,60.41
2023-04-25T08:14:10.362Z,61.74
2023-04-25T08:15:10.354Z,63.59
2023-04-25T08:16:10.380Z,60.92
2023-04-25T08:17:10.326Z,61.54
2023-04-25T08:18:10.359Z,59.46
2023-04-25T08:19:10.286Z,59.46
2023-04-25T08:20:10.280Z,61.82
2023-04-25T08:21:10.268Z,61.20
2023-04-25T08:22:10.268Z,61.07
2023-04-25T08:23:10.246Z,64.14
2023-04-25T08:24:10.221Z,66.16
2023-04-25T08:25:09.262Z,70.09
2023-04-25T08:26:10.202Z,67.32
2023-04-25T08:27:10.231Z,65.45
2023-04-25T08:28:09.335Z,62.07
2023-04-25T08:29:10.185Z,60.71
2023-04-25T08:30:09.327Z,62.14
2023-04-25T08:31:09.132Z,69.92
2023-04-25T08:32:09.293Z,65.52
2023-04-25T08:33:10.149Z,68.55
2023-04-25T08:34:10.100Z,68.25
2023-04-25T08:35:10.073Z,68.12
2023-04-25T08:36:08.939Z,69.45
2023-04-25T08:37:09.311Z,70.95
2023-04-25T08:38:09.141Z,76.09
2023-04-25T08:39:09.303Z,73.94
2023-04-25T08:40:10.033Z,76.30
2023-04-25T08:41:10.185Z,71.15
2023-04-25T08:42:09.969Z,81.01
2023-04-25T08:43:09.979Z,80.80
2023-04-25T08:44:09.945Z,73.88
2023-04-25T08:45:09.320Z,76.13
2023-04-25T08:46:09.923Z,72.55
2023-04-25T08:47:10.069Z,71.56
2023-04-25T08:48:09.929Z,72.89
2023-04-25T08:49:09.887Z,71.97
2023-04-25T08:50:09.875Z,71.36
2023-04-25T08:52:09.887Z,73.13
2023-04-25T08:53:09.113Z,71.22
2023-04-25T08:54:30.906Z,70.70
2023-04-25T08:55:10.807Z,67.22
2023-04-25T08:56:09.779Z,65.78
2023-04-25T08:57:09.913Z,64.56
2023-04-25T08:58:09.770Z,65.48
2023-04-25T08:59:09.738Z,66.19
2023-04-25T09:00:09.724Z,61.86
2023-04-25T09:01:09.732Z,62.24
2023-04-25T09:02:08.312Z,64.57
2023-04-25T09:03:09.966Z,66.38
2023-04-25T09:04:09.816Z,77.12
2023-04-25T09:05:09.664Z,71.39
2023-04-25T09:06:09.651Z,70.13
2023-04-25T09:07:09.635Z,75.55
2023-04-25T09:08:09.640Z,77.39
2023-04-25T09:09:08.614Z,72.92
2023-04-25T09:10:09.640Z,75.48
2023-04-25T09:11:09.585Z,80.62
2023-04-25T09:12:09.572Z,79.46
2023-04-25T09:13:09.590Z,79.22
2023-04-25T09:14:09.540Z,81.53
2023-04-25T09:15:09.536Z,86.57
2023-04-25T09:16:09.567Z,85.04
2023-04-25T09:17:09.555Z,87.53
2023-04-25T09:18:08.087Z,91.09
2023-04-25T09:19:09.473Z,88.33
2023-04-25T09:20:09.462Z,90.92
2023-04-25T09:21:13.569Z,88.35
2023-04-25T09:22:10.418Z,82.96
2023-04-25T09:23:09.432Z,83.61
2023-04-25T09:24:09.399Z,75.56
2023-04-25T09:25:09.378Z,73.54
2023-04-25T09:26:07.914Z,80.04
2023-04-25T09:27:09.353Z,77.30
2023-04-25T09:28:09.354Z,64.29
2023-04-25T09:29:09.337Z,62.99
2023-04-25T09:30:09.345Z,67.33
2023-04-25T09:31:09.315Z,57.70
2023-04-25T09:32:09.305Z,55.64
2023-04-25T09:33:09.313Z,52.56
2023-04-25T09:34:09.261Z,53.30
2023-04-25T09:35:09.271Z,50.42
2023-04-25T09:36:08.151Z,49.29
2023-04-25T09:37:09.234Z,47.31
2023-04-25T09:38:08.114Z,47.72
2023-04-25T09:39:08.119Z,48.96
2023-04-25T09:40:09.228Z,48.54
2023-04-25T09:41:07.802Z,47.41
2023-04-25T09:42:08.194Z,47.70
2023-04-25T09:43:09.159Z,46.67
2023-04-25T09:44:09.136Z,46.15
2023-04-25T09:45:09.113Z,47.49
2023-04-25T09:46:09.119Z,49.04
2023-04-25T09:47:09.107Z,52.25
2023-04-25T09:48:09.146Z,48.67
2023-04-25T09:49:07.694Z,44.33
2023-04-25T09:50:09.047Z,47.02
2023-04-25T09:51:09.032Z,49.37
2023-04-25T09:52:09.028Z,48.24
2023-04-25T09:53:09.003Z,48.96
2023-04-25T09:54:08.999Z,50.27
2023-04-25T09:55:08.991Z,51.71
2023-04-25T09:56:08.979Z,51.07
2023-04-25T09:57:08.958Z,51.35
2023-04-25T09:58:08.937Z,49.87
2023-04-25T09:59:08.001Z,51.90
2023-04-25T10:00:08.915Z,54.53
2023-04-25T10:01:08.930Z,58.17
2023-04-25T10:02:08.920Z,58.56
2023-04-25T10:03:08.929Z,67.77
2023-04-25T10:04:08.902Z,71.01
2023-04-25T10:05:08.891Z,72.41
2023-04-25T10:06:08.826Z,70.54
2023-04-25T10:07:08.827Z,77.29
2023-04-25T10:08:08.810Z,80.83
2023-04-25T10:09:08.791Z,85.53
2023-04-25T10:10:08.279Z,83.85
2023-04-25T10:11:08.773Z,79.77
2023-04-25T10:12:08.764Z,86.76
2023-04-25T10:13:08.729Z,79.29
2023-04-25T10:14:07.274Z,79.23
2023-04-25T10:15:08.715Z,74.93
2023-04-25T10:16:08.710Z,73.40
2023-04-25T10:17:08.696Z,80.08
2023-04-25T10:18:08.751Z,75.59
2023-04-25T10:19:08.673Z,79.00
2023-04-25T10:20:08.659Z,74.49
2023-04-25T10:21:07.187Z,71.94
2023-04-25T10:22:08.624Z,72.31
2023-04-25T10:23:08.587Z,75.14
2023-04-25T10:24:08.579Z,80.35
2023-04-25T10:25:08.607Z,86.38
2023-04-25T10:26:08.572Z,79.94
2023-04-25T10:27:08.546Z,75.51
2023-04-25T10:28:08.526Z,72.92
2023-04-25T10:29:07.383Z,78.44
2023-04-25T10:30:07.501Z,81.40
2023-04-25T10:31:08.577Z,86.71
2023-04-25T10:32:08.523Z,80.18
2023-04-25T10:33:08.468Z,83.75
2023-04-25T10:34:08.485Z,85.38
2023-04-25T10:35:08.475Z,91.52
2023-04-25T10:36:08.421Z,90.29
2023-04-25T10:37:06.954Z,90.19
2023-04-25T10:38:08.417Z,89.08
2023-04-25T10:39:08.450Z,91.39
2023-04-25T10:40:08.440Z,99.73
2023-04-25T10:41:08.356Z,99.99
2023-04-25T10:42:08.348Z,99.99
2023-04-25T10:43:08.351Z,95.68
2023-04-25T10:44:08.311Z,94.24
2023-04-25T10:45:06.895Z,91.21
2023-04-25T10:46:07.376Z,84.91
2023-04-25T10:47:08.318Z,84.87
2023-04-25T10:48:08.314Z,86.43
2023-04-25T10:49:07.430Z,87.72
2023-04-25T10:50:08.221Z,78.46
2023-04-25T10:51:08.247Z,72.85
2023-04-25T10:52:08.203Z,81.70
2023-04-25T10:53:07.423Z,70.46
2023-04-25T10:54:07.419Z,69.82
2023-04-25T10:55:08.159Z,78.97
2023-04-25T10:56:09.634Z,71.47
2023-04-25T10:57:07.422Z,84.25
2023-04-25T10:58:08.141Z,99.80
2023-04-25T10:59:08.132Z,99.99
2023-04-25T11:00:08.088Z,99.99
2023-04-25T11:01:07.397Z,99.99
2023-04-25T11:02:08.171Z,93.41
2023-04-25T11:03:08.262Z,99.68
2023-04-25T11:04:08.234Z,96.58
2023-04-25T11:05:08.030Z,94.04
2023-04-25T11:06:08.005Z,93.27
2023-04-25T11:07:08.525Z,96.62
2023-04-25T11:08:08.552Z,99.99
2023-04-25T11:09:07.283Z,99.99
2023-04-25T11:10:07.967Z,99.99
2023-04-25T11:11:07.954Z,96.84
2023-04-25T11:12:07.932Z,99.18
2023-04-25T11:13:07.938Z,99.99
2023-04-25T11:14:07.907Z,99.99
2023-04-25T11:15:07.892Z,99.99
2023-04-25T11:16:13.396Z,99.99
2023-04-25T11:17:08.915Z,99.99
2023-04-25T11:18:08.320Z,99.78
2023-04-25T11:19:07.838Z,99.99
2023-04-25T11:20:07.346Z,99.99
2023-04-25T11:21:07.816Z,94.93
2023-04-25T11:22:07.839Z,99.99
2023-04-25T11:23:07.799Z,98.56
2023-04-25T11:24:07.773Z,99.99
2023-04-25T11:25:07.776Z,99.99
2023-04-25T11:26:07.742Z,92.36
2023-04-25T11:27:07.738Z,78.23
2023-04-25T11:28:07.738Z,93.10
2023-04-25T11:29:07.698Z,97.24
2023-04-25T11:30:07.692Z,96.88
2023-04-25T11:31:07.724Z,85.88
2023-04-25T11:32:07.734Z,97.78
2023-04-25T11:33:06.225Z,98.08
2023-04-25T11:34:07.627Z,94.53
2023-04-25T11:35:07.619Z,98.02
2023-04-25T11:36:07.609Z,93.84
2023-04-25T11:37:07.630Z,99.99
2023-04-25T11:38:07.589Z,99.87
2023-04-25T11:39:07.571Z,99.99
2023-04-25T11:40:07.562Z,99.51
2023-04-25T11:41:07.541Z,99.20
2023-04-25T11:42:13.485Z,98.02
2023-04-25T11:43:08.602Z,97.11
2023-04-25T11:44:07.494Z,91.40
2023-04-25T11:45:07.485Z,91.61
2023-04-25T11:46:07.502Z,91.65
2023-04-25T11:47:07.452Z,96.44
2023-04-25T11:48:07.512Z,91.55
2023-04-25T11:49:05.985Z,90.73
2023-04-25T11:50:07.437Z,92.57
2023-04-25T11:51:07.382Z,99.99
2023-04-25T11:52:07.393Z,96.69
2023-04-25T11:53:07.377Z,95.57
2023-04-25T11:54:06.230Z,96.79
2023-04-25T11:55:08.997Z,92.50
2023-04-25T11:56:07.321Z,90.77
2023-04-25T11:57:05.866Z,95.77
2023-04-25T11:58:07.311Z,91.69
2023-04-25T11:59:06.644Z,94.45
2023-04-25T12:00:06.232Z,96.18
2023-04-25T12:01:07.284Z,91.75
2023-04-25T12:02:07.244Z,96.34
2023-04-25T12:03:07.303Z,99.35
2023-04-25T12:04:07.341Z,99.99
2023-04-25T12:05:21.509Z,97.25
2023-04-25T12:06:07.663Z,97.91
2023-04-25T12:07:06.244Z,99.99
2023-04-25T12:08:07.180Z,96.22
2023-04-25T12:09:07.147Z,99.95
2023-04-25T12:10:07.157Z,99.84
2023-04-25T12:11:07.119Z,95.76
2023-04-25T12:12:07.137Z,99.68
2023-04-25T12:13:07.108Z,97.13
2023-04-25T12:14:07.096Z,98.52
2023-04-25T12:15:07.078Z,97.62
2023-04-25T12:16:07.105Z,99.99
2023-04-25T12:17:07.046Z,99.99
2023-04-25T12:18:07.066Z,99.99
2023-04-25T12:19:07.016Z,99.99
2023-04-25T12:20:06.066Z,99.99
2023-04-25T12:21:06.076Z,99.99
2023-04-25T12:22:06.962Z,99.99
2023-04-25T12:23:06.974Z,77.43
2023-04-25T12:24:06.982Z,75.88
2023-04-25T12:25:06.935Z,68.95
2023-04-25T12:26:06.926Z,62.29
2023-04-25T12:27:06.934Z,58.44
2023-04-25T12:28:06.896Z,64.89
2023-04-25T12:29:06.867Z,58.42
2023-04-25T12:30:06.869Z,57.30
2023-04-25T12:31:06.919Z,62.04
2023-04-25T12:32:06.838Z,62.54
2023-04-25T12:33:06.893Z,63.90
2023-04-25T12:34:06.815Z,79.66
2023-04-25T12:35:06.804Z,75.11
2023-04-25T12:36:06.784Z,79.85
2023-04-25T12:37:05.310Z,89.31
2023-04-25T12:38:06.753Z,82.50
2023-04-25T12:39:06.744Z,94.98
2023-04-25T12:40:06.733Z,90.96
2023-04-25T12:41:06.724Z,94.80
2023-04-25T12:42:09.279Z,96.78
2023-04-25T12:43:06.692Z,97.13
2023-04-25T12:44:06.668Z,97.38
2023-04-25T12:45:05.213Z,98.70
2023-04-25T12:46:06.666Z,99.99
2023-04-25T12:47:06.721Z,99.99
2023-04-25T12:48:06.667Z,97.94
2023-04-25T12:49:17.741Z,99.99
2023-04-25T12:50:07.686Z,99.99
2023-04-25T12:51:06.573Z,99.99
2023-04-25T12:52:06.569Z,99.99
2023-04-25T12:53:05.103Z,93.43